CSN weather

Carson Airport
Carson City, Nevada, United States

Public forecast

Using degrees Fahrenheit for public forecast. Weather courtesy of forecast.io.

METAR (pilot weather report)

Retrieved 2019/09/19 01:35 UTC (0 seconds ago):

KCXP 190135Z AUTO 25013KT 230V290 10SM FEW055 15/02 A2991 RMK AO2

TAF (pilot weather forecast)

Forecast is more than 12 hours old.

Retrieved 2019/09/18 00:48 UTC (1 day ago):

TAF KCXP 182340Z 1900/1924 24010KT P6SM SCT040 BKN070 FM190200 28008KT P6SM SCT050 SCT080 FM190600 26010KT P6SM VCSH SCT050 BKN080 FM192100 33010KT P6SM VCSH BKN050 BKN100